sensor_id;sensor_type;location;lat;lon;timestamp;temperature;humidity
42755;DHT22;28407;51.830;5.684;2023-03-05T00:01:10;7.80;72.90
42755;DHT22;28407;51.830;5.684;2023-03-05T00:03:11;7.80;73.00
42755;DHT22;28407;51.830;5.684;2023-03-05T00:05:11;7.80;73.00
42755;DHT22;28407;51.830;5.684;2023-03-05T00:07:12;7.80;73.70
42755;DHT22;28407;51.830;5.684;2023-03-05T00:09:13;7.80;73.00
42755;DHT22;28407;51.830;5.684;2023-03-05T00:11:14;7.80;73.00
42755;DHT22;28407;51.830;5.684;2023-03-05T00:13:16;7.80;73.10
42755;DHT22;28407;51.830;5.684;2023-03-05T00:15:16;7.80;73.10
42755;DHT22;28407;51.830;5.684;2023-03-05T00:17:17;7.70;73.10
42755;DHT22;28407;51.830;5.684;2023-03-05T00:19:17;7.80;73.10
42755;DHT22;28407;51.830;5.684;2023-03-05T00:21:26;7.80;73.10
42755;DHT22;28407;51.830;5.684;2023-03-05T00:23:27;7.80;73.20
42755;DHT22;28407;51.830;5.684;2023-03-05T00:25:28;7.80;73.10
42755;DHT22;28407;51.830;5.684;2023-03-05T00:27:29;7.80;73.20
42755;DHT22;28407;51.830;5.684;2023-03-05T00:29:29;7.80;73.20
42755;DHT22;28407;51.830;5.684;2023-03-05T00:31:32;7.70;73.10
42755;DHT22;28407;51.830;5.684;2023-03-05T00:33:33;7.80;73.20
42755;DHT22;28407;51.830;5.684;2023-03-05T00:35:44;7.70;73.20
42755;DHT22;28407;51.830;5.684;2023-03-05T00:37:45;7.70;73.20
42755;DHT22;28407;51.830;5.684;2023-03-05T00:39:46;7.70;73.20
42755;DHT22;28407;51.830;5.684;2023-03-05T00:41:47;7.70;73.30
42755;DHT22;28407;51.830;5.684;2023-03-05T00:43:48;7.70;73.30
42755;DHT22;28407;51.830;5.684;2023-03-05T00:45:48;7.70;73.30
42755;DHT22;28407;51.830;5.684;2023-03-05T00:47:49;7.70;73.40
42755;DHT22;28407;51.830;5.684;2023-03-05T00:49:50;7.70;73.50
42755;DHT22;28407;51.830;5.684;2023-03-05T00:51:50;7.70;73.50
42755;DHT22;28407;51.830;5.684;2023-03-05T00:53:51;7.70;73.50
42755;DHT22;28407;51.830;5.684;2023-03-05T00:55:52;7.60;74.20
42755;DHT22;28407;51.830;5.684;2023-03-05T00:57:53;7.60;73.60
42755;DHT22;28407;51.830;5.684;2023-03-05T00:59:54;7.60;73.60
42755;DHT22;28407;51.830;5.684;2023-03-05T01:01:55;7.60;73.70
42755;DHT22;28407;51.830;5.684;2023-03-05T01:03:55;7.60;73.70
42755;DHT22;28407;51.830;5.684;2023-03-05T01:05:58;7.60;73.70
42755;DHT22;28407;51.830;5.684;2023-03-05T01:07:58;7.60;73.80
42755;DHT22;28407;51.830;5.684;2023-03-05T01:09:59;7.60;73.80
42755;DHT22;28407;51.830;5.684;2023-03-05T01:12:00;7.60;73.80
42755;DHT22;28407;51.830;5.684;2023-03-05T01:14:00;7.60;73.90
42755;DHT22;28407;51.830;5.684;2023-03-05T01:16:03;7.60;73.90
42755;DHT22;28407;51.830;5.684;2023-03-05T01:18:04;7.50;73.90
42755;DHT22;28407;51.830;5.684;2023-03-05T01:20:05;7.50;73.90
42755;DHT22;28407;51.830;5.684;2023-03-05T01:22:06;7.50;74.00
42755;DHT22;28407;51.830;5.684;2023-03-05T01:24:08;7.50;74.10
42755;DHT22;28407;51.830;5.684;2023-03-05T01:26:09;7.40;73.90
42755;DHT22;28407;51.830;5.684;2023-03-05T01:28:09;7.50;74.10
42755;DHT22;28407;51.830;5.684;2023-03-05T01:30:11;7.50;74.10
42755;DHT22;28407;51.830;5.684;2023-03-05T01:32:12;7.40;74.10
42755;DHT22;28407;51.830;5.684;2023-03-05T01:34:13;7.40;74.00
42755;DHT22;28407;51.830;5.684;2023-03-05T01:36:15;7.40;74.10
42755;DHT22;28407;51.830;5.684;2023-03-05T01:38:16;7.40;74.10
42755;DHT22;28407;51.830;5.684;2023-03-05T01:40:20;7.40;74.10
42755;DHT22;28407;51.830;5.684;2023-03-05T01:42:21;7.40;74.10
42755;DHT22;28407;51.830;5.684;2023-03-05T01:44:25;7.40;74.10
42755;DHT22;28407;51.830;5.684;2023-03-05T01:46:34;7.40;74.20
42755;DHT22;28407;51.830;5.684;2023-03-05T01:48:35;7.40;74.20
42755;DHT22;28407;51.830;5.684;2023-03-05T01:50:35;7.40;74.20
42755;DHT22;28407;51.830;5.684;2023-03-05T01:52:38;7.40;74.90
42755;DHT22;28407;51.830;5.684;2023-03-05T01:54:52;7.40;74.30
42755;DHT22;28407;51.830;5.684;2023-03-05T01:56:56;7.40;74.90
42755;DHT22;28407;51.830;5.684;2023-03-05T01:58:59;7.40;74.30
42755;DHT22;28407;51.830;5.684;2023-03-05T02:01:03;7.40;74.30
42755;DHT22;28407;51.830;5.684;2023-03-05T02:03:06;7.40;74.30
42755;DHT22;28407;51.830;5.684;2023-03-05T02:05:11;7.40;74.30
42755;DHT22;28407;51.830;5.684;2023-03-05T02:07:13;7.40;74.40
42755;DHT22;28407;51.830;5.684;2023-03-05T02:09:15;7.40;74.40
42755;DHT22;28407;51.830;5.684;2023-03-05T02:11:15;7.40;74.50
42755;DHT22;28407;51.830;5.684;2023-03-05T02:13:28;7.40;74.40
42755;DHT22;28407;51.830;5.684;2023-03-05T02:15:31;7.40;74.50
42755;DHT22;28407;51.830;5.684;2023-03-05T02:17:32;7.40;74.40
42755;DHT22;28407;51.830;5.684;2023-03-05T02:20:07;7.30;74.40
42755;DHT22;28407;51.830;5.684;2023-03-05T02:22:13;7.40;74.50
42755;DHT22;28407;51.830;5.684;2023-03-05T02:24:17;7.30;74.50
42755;DHT22;28407;51.830;5.684;2023-03-05T02:26:18;7.40;74.50
42755;DHT22;28407;51.830;5.684;2023-03-05T02:28:39;7.30;74.50
42755;DHT22;28407;51.830;5.684;2023-03-05T02:30:42;7.30;74.60
42755;DHT22;28407;51.830;5.684;2023-03-05T02:32:42;7.30;74.50
42755;DHT22;28407;51.830;5.684;2023-03-05T02:34:43;7.30;74.60
42755;DHT22;28407;51.830;5.684;2023-03-05T02:36:44;7.30;74.60
42755;DHT22;28407;51.830;5.684;2023-03-05T02:38:46;7.30;74.60
42755;DHT22;28407;51.830;5.684;2023-03-05T02:40:48;7.30;74.70
42755;DHT22;28407;51.830;5.684;2023-03-05T02:42:50;7.20;74.60
42755;DHT22;28407;51.830;5.684;2023-03-05T02:44:51;7.20;74.60
42755;DHT22;28407;51.830;5.684;2023-03-05T02:46:52;7.20;75.20
42755;DHT22;28407;51.830;5.684;2023-03-05T02:48:53;7.20;74.60
42755;DHT22;28407;51.830;5.684;2023-03-05T02:50:54;7.20;74.60
42755;DHT22;28407;51.830;5.684;2023-03-05T02:52:55;7.20;74.60
42755;DHT22;28407;51.830;5.684;2023-03-05T02:54:56;7.20;74.60
42755;DHT22;28407;51.830;5.684;2023-03-05T02:56:57;7.20;74.70
42755;DHT22;28407;51.830;5.684;2023-03-05T02:58:58;7.20;74.70
42755;DHT22;28407;51.830;5.684;2023-03-05T03:00:58;7.20;74.70
42755;DHT22;28407;51.830;5.684;2023-03-05T03:02:59;7.20;74.80
42755;DHT22;28407;51.830;5.684;2023-03-05T03:05:01;7.20;74.70
42755;DHT22;28407;51.830;5.684;2023-03-05T03:07:01;7.20;74.70
42755;DHT22;28407;51.830;5.684;2023-03-05T03:09:02;7.20;74.80
42755;DHT22;28407;51.830;5.684;2023-03-05T03:11:07;7.20;74.80
42755;DHT22;28407;51.830;5.684;2023-03-05T03:13:09;7.20;74.80
42755;DHT22;28407;51.830;5.684;2023-03-05T03:15:11;7.20;74.80
42755;DHT22;28407;51.830;5.684;2023-03-05T03:17:14;7.20;74.80
42755;DHT22;28407;51.830;5.684;2023-03-05T03:19:15;7.20;74.90
42755;DHT22;28407;51.830;5.684;2023-03-05T03:21:20;7.20;74.90
42755;DHT22;28407;51.830;5.684;2023-03-05T03:23:21;7.20;75.00
42755;DHT22;28407;51.830;5.684;2023-03-05T03:25:22;7.20;75.00
42755;DHT22;28407;51.830;5.684;2023-03-05T03:27:25;7.20;75.00
42755;DHT22;28407;51.830;5.684;2023-03-05T03:29:27;7.20;75.00
42755;DHT22;28407;51.830;5.684;2023-03-05T03:31:28;7.20;75.00
42755;DHT22;28407;51.830;5.684;2023-03-05T03:33:28;7.20;75.00
42755;DHT22;28407;51.830;5.684;2023-03-05T03:35:29;7.20;75.00
42755;DHT22;28407;51.830;5.684;2023-03-05T03:37:30;7.20;75.10
42755;DHT22;28407;51.830;5.684;2023-03-05T03:39:30;7.10;75.00
42755;DHT22;28407;51.830;5.684;2023-03-05T03:41:32;7.10;75.00
42755;DHT22;28407;51.830;5.684;2023-03-05T03:43:34;7.20;75.10
42755;DHT22;28407;51.830;5.684;2023-03-05T03:45:34;7.10;75.00
42755;DHT22;28407;51.830;5.684;2023-03-05T03:47:39;7.10;75.10
42755;DHT22;28407;51.830;5.684;2023-03-05T03:49:39;7.10;75.00
42755;DHT22;28407;51.830;5.684;2023-03-05T03:51:40;7.10;75.10
42755;DHT22;28407;51.830;5.684;2023-03-05T03:53:40;7.10;75.10
42755;DHT22;28407;51.830;5.684;2023-03-05T03:55:41;7.10;75.10
42755;DHT22;28407;51.830;5.684;2023-03-05T03:57:42;7.10;75.00
42755;DHT22;28407;51.830;5.684;2023-03-05T03:59:43;7.10;75.10
42755;DHT22;28407;51.830;5.684;2023-03-05T04:01:45;7.20;75.10
42755;DHT22;28407;51.830;5.684;2023-03-05T04:03:46;7.10;75.10
42755;DHT22;28407;51.830;5.684;2023-03-05T04:05:47;7.10;75.10
42755;DHT22;28407;51.830;5.684;2023-03-05T04:07:47;7.10;75.10
42755;DHT22;28407;51.830;5.684;2023-03-05T04:09:48;7.10;75.10
42755;DHT22;28407;51.830;5.684;2023-03-05T04:11:49;7.10;75.20
42755;DHT22;28407;51.830;5.684;2023-03-05T04:13:50;7.10;75.20
42755;DHT22;28407;51.830;5.684;2023-03-05T04:15:50;7.10;75.20
42755;DHT22;28407;51.830;5.684;2023-03-05T04:17:51;7.10;75.20
42755;DHT22;28407;51.830;5.684;2023-03-05T04:19:52;7.10;75.20
42755;DHT22;28407;51.830;5.684;2023-03-05T04:21:53;7.10;75.30
42755;DHT22;28407;51.830;5.684;2023-03-05T04:23:53;7.10;75.30
42755;DHT22;28407;51.830;5.684;2023-03-05T04:25:54;7.10;75.30
42755;DHT22;28407;51.830;5.684;2023-03-05T04:27:55;7.10;75.30
42755;DHT22;28407;51.830;5.684;2023-03-05T04:29:55;7.10;76.00
42755;DHT22;28407;51.830;5.684;2023-03-05T04:31:56;7.00;75.30
42755;DHT22;28407;51.830;5.684;2023-03-05T04:33:57;7.00;75.30
42755;DHT22;28407;51.830;5.684;2023-03-05T04:35:58;7.00;75.30
42755;DHT22;28407;51.830;5.684;2023-03-05T04:37:59;7.00;75.30
42755;DHT22;28407;51.830;5.684;2023-03-05T04:39:59;7.00;75.30
42755;DHT22;28407;51.830;5.684;2023-03-05T04:42:00;7.00;75.40
42755;DHT22;28407;51.830;5.684;2023-03-05T04:44:01;7.00;75.40
42755;DHT22;28407;51.830;5.684;2023-03-05T04:46:01;7.00;75.40
42755;DHT22;28407;51.830;5.684;2023-03-05T04:48:02;7.00;75.40
42755;DHT22;28407;51.830;5.684;2023-03-05T04:50:04;7.00;75.50
42755;DHT22;28407;51.830;5.684;2023-03-05T04:52:05;7.00;75.50
42755;DHT22;28407;51.830;5.684;2023-03-05T04:54:06;7.00;75.50
42755;DHT22;28407;51.830;5.684;2023-03-05T04:56:07;7.00;75.50
42755;DHT22;28407;51.830;5.684;2023-03-05T04:58:08;7.00;75.50
42755;DHT22;28407;51.830;5.684;2023-03-05T05:00:11;7.00;75.50
42755;DHT22;28407;51.830;5.684;2023-03-05T05:02:13;7.00;75.50
42755;DHT22;28407;51.830;5.684;2023-03-05T05:04:14;7.00;75.50
42755;DHT22;28407;51.830;5.684;2023-03-05T05:06:15;7.00;75.50
42755;DHT22;28407;51.830;5.684;2023-03-05T05:08:15;7.00;75.50
42755;DHT22;28407;51.830;5.684;2023-03-05T05:10:16;7.00;75.60
42755;DHT22;28407;51.830;5.684;2023-03-05T05:12:17;6.90;76.20
42755;DHT22;28407;51.830;5.684;2023-03-05T05:14:17;6.90;75.50
42755;DHT22;28407;51.830;5.684;2023-03-05T05:16:18;6.90;75.60
42755;DHT22;28407;51.830;5.684;2023-03-05T05:18:19;6.90;75.50
42755;DHT22;28407;51.830;5.684;2023-03-05T05:20:20;7.00;75.60
42755;DHT22;28407;51.830;5.684;2023-03-05T05:22:21;6.90;75.60
42755;DHT22;28407;51.830;5.684;2023-03-05T05:24:22;6.90;75.60
42755;DHT22;28407;51.830;5.684;2023-03-05T05:26:23;6.90;75.60
42755;DHT22;28407;51.830;5.684;2023-03-05T05:28:24;6.90;75.60
42755;DHT22;28407;51.830;5.684;2023-03-05T05:30:24;7.00;75.70
42755;DHT22;28407;51.830;5.684;2023-03-05T05:32:25;6.90;75.60
42755;DHT22;28407;51.830;5.684;2023-03-05T05:34:26;7.00;75.70
42755;DHT22;28407;51.830;5.684;2023-03-05T05:36:26;6.90;75.60
42755;DHT22;28407;51.830;5.684;2023-03-05T05:38:27;6.90;75.70
42755;DHT22;28407;51.830;5.684;2023-03-05T05:40:27;7.00;75.70
42755;DHT22;28407;51.830;5.684;2023-03-05T05:42:28;7.00;75.80
42755;DHT22;28407;51.830;5.684;2023-03-05T05:44:29;7.00;75.80
42755;DHT22;28407;51.830;5.684;2023-03-05T05:46:29;6.90;75.80
42755;DHT22;28407;51.830;5.684;2023-03-05T05:50:32;6.90;76.00
42755;DHT22;28407;51.830;5.684;2023-03-05T05:52:32;6.90;76.00
42755;DHT22;28407;51.830;5.684;2023-03-05T05:54:33;6.90;76.10
42755;DHT22;28407;51.830;5.684;2023-03-05T05:56:34;6.90;76.20
42755;DHT22;28407;51.830;5.684;2023-03-05T05:58:36;6.90;76.30
42755;DHT22;28407;51.830;5.684;2023-03-05T06:00:37;6.90;76.30
42755;DHT22;28407;51.830;5.684;2023-03-05T06:02:39;6.90;76.30
42755;DHT22;28407;51.830;5.684;2023-03-05T06:04:39;6.90;76.40
42755;DHT22;28407;51.830;5.684;2023-03-05T06:06:40;6.90;76.40
42755;DHT22;28407;51.830;5.684;2023-03-05T06:08:41;6.90;76.50
42755;DHT22;28407;51.830;5.684;2023-03-05T06:10:42;6.90;76.50
42755;DHT22;28407;51.830;5.684;2023-03-05T06:12:43;6.90;76.50
42755;DHT22;28407;51.830;5.684;2023-03-05T06:14:43;6.90;76.60
42755;DHT22;28407;51.830;5.684;2023-03-05T06:16:44;6.90;76.60
42755;DHT22;28407;51.830;5.684;2023-03-05T06:18:45;6.90;76.60
42755;DHT22;28407;51.830;5.684;2023-03-05T06:20:56;6.90;76.70
42755;DHT22;28407;51.830;5.684;2023-03-05T06:22:57;6.90;76.70
42755;DHT22;28407;51.830;5.684;2023-03-05T06:24:57;6.90;76.70
42755;DHT22;28407;51.830;5.684;2023-03-05T06:26:58;6.80;76.70
42755;DHT22;28407;51.830;5.684;2023-03-05T06:28:59;6.80;76.70
42755;DHT22;28407;51.830;5.684;2023-03-05T06:31:04;6.80;76.70
42755;DHT22;28407;51.830;5.684;2023-03-05T06:33:05;6.80;76.70
42755;DHT22;28407;51.830;5.684;2023-03-05T06:35:06;6.80;76.80
42755;DHT22;28407;51.830;5.684;2023-03-05T06:37:08;6.80;76.80
42755;DHT22;28407;51.830;5.684;2023-03-05T06:39:09;6.80;76.90
42755;DHT22;28407;51.830;5.684;2023-03-05T06:41:12;6.80;76.90
42755;DHT22;28407;51.830;5.684;2023-03-05T06:43:13;6.80;76.90
42755;DHT22;28407;51.830;5.684;2023-03-05T06:45:14;6.80;76.90
42755;DHT22;28407;51.830;5.684;2023-03-05T06:47:15;6.80;76.90
42755;DHT22;28407;51.830;5.684;2023-03-05T06:49:15;6.80;77.00
42755;DHT22;28407;51.830;5.684;2023-03-05T06:51:28;6.80;77.00
42755;DHT22;28407;51.830;5.684;2023-03-05T06:53:29;6.80;77.10
42755;DHT22;28407;51.830;5.684;2023-03-05T06:55:30;6.80;77.00
42755;DHT22;28407;51.830;5.684;2023-03-05T06:57:30;6.80;77.00
42755;DHT22;28407;51.830;5.684;2023-03-05T06:59:31;6.80;77.10
42755;DHT22;28407;51.830;5.684;2023-03-05T07:01:32;6.80;77.10
42755;DHT22;28407;51.830;5.684;2023-03-05T07:03:36;6.80;77.00
42755;DHT22;28407;51.830;5.684;2023-03-05T07:05:40;6.90;77.70
42755;DHT22;28407;51.830;5.684;2023-03-05T07:07:41;6.80;77.10
42755;DHT22;28407;51.830;5.684;2023-03-05T07:09:42;6.80;77.10
42755;DHT22;28407;51.830;5.684;2023-03-05T07:11:45;6.80;77.10
42755;DHT22;28407;51.830;5.684;2023-03-05T07:13:46;6.80;77.10
42755;DHT22;28407;51.830;5.684;2023-03-05T07:15:50;6.80;77.10
42755;DHT22;28407;51.830;5.684;2023-03-05T07:17:50;6.80;77.10
42755;DHT22;28407;51.830;5.684;2023-03-05T07:19:51;6.80;77.10
42755;DHT22;28407;51.830;5.684;2023-03-05T07:21:52;6.90;77.20
42755;DHT22;28407;51.830;5.684;2023-03-05T07:23:53;6.90;77.20
42755;DHT22;28407;51.830;5.684;2023-03-05T07:25:54;6.90;77.30
42755;DHT22;28407;51.830;5.684;2023-03-05T07:27:55;6.90;77.30
42755;DHT22;28407;51.830;5.684;2023-03-05T07:29:56;6.90;77.30
42755;DHT22;28407;51.830;5.684;2023-03-05T07:31:57;6.90;77.30
42755;DHT22;28407;51.830;5.684;2023-03-05T07:33:59;7.00;77.30
42755;DHT22;28407;51.830;5.684;2023-03-05T07:36:00;7.00;77.30
42755;DHT22;28407;51.830;5.684;2023-03-05T07:38:01;7.00;77.30
42755;DHT22;28407;51.830;5.684;2023-03-05T07:40:02;7.00;77.30
42755;DHT22;28407;51.830;5.684;2023-03-05T07:42:03;7.00;77.30
42755;DHT22;28407;51.830;5.684;2023-03-05T07:44:21;7.00;77.20
42755;DHT22;28407;51.830;5.684;2023-03-05T07:46:25;7.10;77.10
42755;DHT22;28407;51.830;5.684;2023-03-05T07:48:26;7.10;77.10
42755;DHT22;28407;51.830;5.684;2023-03-05T07:50:26;7.10;77.10
42755;DHT22;28407;51.830;5.684;2023-03-05T07:52:27;7.10;77.10
42755;DHT22;28407;51.830;5.684;2023-03-05T07:54:28;7.10;77.10
42755;DHT22;28407;51.830;5.684;2023-03-05T07:56:33;7.20;77.20
42755;DHT22;28407;51.830;5.684;2023-03-05T07:58:34;7.20;77.10
42755;DHT22;28407;51.830;5.684;2023-03-05T08:00:35;7.20;77.10
42755;DHT22;28407;51.830;5.684;2023-03-05T08:02:36;7.20;77.10
42755;DHT22;28407;51.830;5.684;2023-03-05T08:04:37;7.30;77.10
42755;DHT22;28407;51.830;5.684;2023-03-05T08:06:39;7.30;77.10
42755;DHT22;28407;51.830;5.684;2023-03-05T08:08:40;7.30;77.10
42755;DHT22;28407;51.830;5.684;2023-03-05T08:10:41;7.30;77.10
42755;DHT22;28407;51.830;5.684;2023-03-05T08:12:42;7.30;77.10
42755;DHT22;28407;51.830;5.684;2023-03-05T08:14:42;7.30;77.10
42755;DHT22;28407;51.830;5.684;2023-03-05T08:16:43;7.30;77.20
42755;DHT22;28407;51.830;5.684;2023-03-05T08:18:44;7.30;77.20
42755;DHT22;28407;51.830;5.684;2023-03-05T08:20:45;7.30;77.20
42755;DHT22;28407;51.830;5.684;2023-03-05T08:22:45;7.30;77.10
42755;DHT22;28407;51.830;5.684;2023-03-05T08:24:46;7.30;77.10
42755;DHT22;28407;51.830;5.684;2023-03-05T08:26:47;7.30;77.20
42755;DHT22;28407;51.830;5.684;2023-03-05T08:28:48;7.30;77.20
42755;DHT22;28407;51.830;5.684;2023-03-05T08:30:49;7.30;77.20
42755;DHT22;28407;51.830;5.684;2023-03-05T08:32:51;7.30;77.20
42755;DHT22;28407;51.830;5.684;2023-03-05T08:34:55;7.30;77.20
42755;DHT22;28407;51.830;5.684;2023-03-05T08:36:57;7.40;77.10
42755;DHT22;28407;51.830;5.684;2023-03-05T08:38:58;7.40;77.00
42755;DHT22;28407;51.830;5.684;2023-03-05T08:40:59;7.40;77.70
42755;DHT22;28407;51.830;5.684;2023-03-05T08:42:59;7.40;77.00
42755;DHT22;28407;51.830;5.684;2023-03-05T08:45:00;7.40;76.90
42755;DHT22;28407;51.830;5.684;2023-03-05T08:47:01;7.50;76.90
42755;DHT22;28407;51.830;5.684;2023-03-05T08:49:02;7.40;76.90
42755;DHT22;28407;51.830;5.684;2023-03-05T08:51:13;7.50;76.90
42755;DHT22;28407;51.830;5.684;2023-03-05T08:53:14;7.50;77.00
42755;DHT22;28407;51.830;5.684;2023-03-05T08:55:15;7.50;76.90
42755;DHT22;28407;51.830;5.684;2023-03-05T08:57:16;7.50;76.80
42755;DHT22;28407;51.830;5.684;2023-03-05T08:59:17;7.60;76.80
42755;DHT22;28407;51.830;5.684;2023-03-05T09:01:17;7.60;76.70
42755;DHT22;28407;51.830;5.684;2023-03-05T09:03:18;7.60;76.70
42755;DHT22;28407;51.830;5.684;2023-03-05T09:05:19;7.60;76.60
42755;DHT22;28407;51.830;5.684;2023-03-05T09:07:19;7.70;76.70
42755;DHT22;28407;51.830;5.684;2023-03-05T09:09:20;7.70;76.60
42755;DHT22;28407;51.830;5.684;2023-03-05T09:11:22;7.70;76.60
42755;DHT22;28407;51.830;5.684;2023-03-05T09:13:23;7.70;76.60
42755;DHT22;28407;51.830;5.684;2023-03-05T09:15:23;7.70;76.60
42755;DHT22;28407;51.830;5.684;2023-03-05T09:17:24;7.70;76.60
42755;DHT22;28407;51.830;5.684;2023-03-05T09:19:25;7.70;76.60
42755;DHT22;28407;51.830;5.684;2023-03-05T09:21:26;7.70;76.50
42755;DHT22;28407;51.830;5.684;2023-03-05T09:23:27;7.70;76.50
42755;DHT22;28407;51.830;5.684;2023-03-05T09:25:28;7.80;76.60
42755;DHT22;28407;51.830;5.684;2023-03-05T09:27:32;7.80;76.50
42755;DHT22;28407;51.830;5.684;2023-03-05T09:29:33;7.80;76.40
42755;DHT22;28407;51.830;5.684;2023-03-05T09:31:35;7.80;76.40
42755;DHT22;28407;51.830;5.684;2023-03-05T09:33:36;7.80;76.30
42755;DHT22;28407;51.830;5.684;2023-03-05T09:35:37;7.80;76.30
42755;DHT22;28407;51.830;5.684;2023-03-05T09:37:37;7.80;76.30
42755;DHT22;28407;51.830;5.684;2023-03-05T09:39:38;7.90;76.30
42755;DHT22;28407;51.830;5.684;2023-03-05T09:44:29;7.90;76.10
42755;DHT22;28407;51.830;5.684;2023-03-05T09:49:32;7.90;76.00
42755;DHT22;28407;51.830;5.684;2023-03-05T09:51:40;7.90;76.00
42755;DHT22;28407;51.830;5.684;2023-03-05T09:53:47;7.90;76.00
42755;DHT22;28407;51.830;5.684;2023-03-05T09:55:52;7.90;76.00
42755;DHT22;28407;51.830;5.684;2023-03-05T09:57:57;7.90;76.00
42755;DHT22;28407;51.830;5.684;2023-03-05T10:00:06;7.90;76.00
42755;DHT22;28407;51.830;5.684;2023-03-05T10:02:18;7.90;76.10
42755;DHT22;28407;51.830;5.684;2023-03-05T10:04:24;7.90;76.10
42755;DHT22;28407;51.830;5.684;2023-03-05T10:06:28;7.90;76.10
42755;DHT22;28407;51.830;5.684;2023-03-05T10:10:57;8.00;76.10
42755;DHT22;28407;51.830;5.684;2023-03-05T10:13:01;8.00;76.00
42755;DHT22;28407;51.830;5.684;2023-03-05T10:15:33;8.00;75.90
42755;DHT22;28407;51.830;5.684;2023-03-05T10:20:06;8.00;76.00
42755;DHT22;28407;51.830;5.684;2023-03-05T10:22:24;8.10;75.90
42755;DHT22;28407;51.830;5.684;2023-03-05T10:26:57;8.10;75.70
42755;DHT22;28407;51.830;5.684;2023-03-05T10:36:58;8.20;75.40
42755;DHT22;28407;51.830;5.684;2023-03-05T10:46:01;8.30;75.00
42755;DHT22;28407;51.830;5.684;2023-03-05T10:50:25;8.40;74.90
42755;DHT22;28407;51.830;5.684;2023-03-05T10:52:39;8.40;74.80
42755;DHT22;28407;51.830;5.684;2023-03-05T10:54:45;8.50;74.70
42755;DHT22;28407;51.830;5.684;2023-03-05T10:56:46;8.50;74.60
42755;DHT22;28407;51.830;5.684;2023-03-05T10:58:47;8.50;74.50
42755;DHT22;28407;51.830;5.684;2023-03-05T11:03:10;8.60;74.40
42755;DHT22;28407;51.830;5.684;2023-03-05T11:06:01;8.60;74.30
42755;DHT22;28407;51.830;5.684;2023-03-05T11:08:25;8.60;74.10
42755;DHT22;28407;51.830;5.684;2023-03-05T11:10:27;8.60;74.70
42755;DHT22;28407;51.830;5.684;2023-03-05T11:12:32;8.60;74.00
42755;DHT22;28407;51.830;5.684;2023-03-05T11:14:35;8.60;73.90
42755;DHT22;28407;51.830;5.684;2023-03-05T11:16:49;8.70;73.90
42755;DHT22;28407;51.830;5.684;2023-03-05T11:21:22;8.70;73.50
42755;DHT22;28407;51.830;5.684;2023-03-05T11:23:26;8.80;73.50
42755;DHT22;28407;51.830;5.684;2023-03-05T11:25:27;8.70;73.40
42755;DHT22;28407;51.830;5.684;2023-03-05T11:27:35;8.80;73.40
42755;DHT22;28407;51.830;5.684;2023-03-05T11:29:46;8.80;73.30
42755;DHT22;28407;51.830;5.684;2023-03-05T11:31:48;8.90;73.20
42755;DHT22;28407;51.830;5.684;2023-03-05T11:36:28;8.90;72.90
42755;DHT22;28407;51.830;5.684;2023-03-05T11:38:29;8.90;72.90
42755;DHT22;28407;51.830;5.684;2023-03-05T11:40:32;8.90;72.90
42755;DHT22;28407;51.830;5.684;2023-03-05T11:42:37;9.00;72.90
42755;DHT22;28407;51.830;5.684;2023-03-05T11:44:53;9.00;72.80
42755;DHT22;28407;51.830;5.684;2023-03-05T11:47:18;9.00;73.30
42755;DHT22;28407;51.830;5.684;2023-03-05T11:49:25;9.00;72.60
42755;DHT22;28407;51.830;5.684;2023-03-05T11:51:48;9.10;72.60
42755;DHT22;28407;51.830;5.684;2023-03-05T11:53:55;9.10;72.50
42755;DHT22;28407;51.830;5.684;2023-03-05T11:56:04;9.00;72.50
42755;DHT22;28407;51.830;5.684;2023-03-05T12:00:20;9.00;72.40
42755;DHT22;28407;51.830;5.684;2023-03-05T12:02:25;9.10;72.40
42755;DHT22;28407;51.830;5.684;2023-03-05T12:04:27;9.20;72.40
42755;DHT22;28407;51.830;5.684;2023-03-05T12:06:49;9.20;72.30
42755;DHT22;28407;51.830;5.684;2023-03-05T12:08:54;9.20;72.10
42755;DHT22;28407;51.830;5.684;2023-03-05T12:10:56;9.30;72.00
42755;DHT22;28407;51.830;5.684;2023-03-05T12:17:33;9.30;71.70
42755;DHT22;28407;51.830;5.684;2023-03-05T12:19:44;9.30;71.70
42755;DHT22;28407;51.830;5.684;2023-03-05T12:21:51;9.30;71.70
42755;DHT22;28407;51.830;5.684;2023-03-05T12:23:55;9.40;71.70
42755;DHT22;28407;51.830;5.684;2023-03-05T12:25:58;9.40;71.60
42755;DHT22;28407;51.830;5.684;2023-03-05T12:28:00;9.40;71.40
42755;DHT22;28407;51.830;5.684;2023-03-05T12:30:02;9.40;71.30
42755;DHT22;28407;51.830;5.684;2023-03-05T12:32:04;9.40;71.40
42755;DHT22;28407;51.830;5.684;2023-03-05T12:36:39;9.40;71.30
42755;DHT22;28407;51.830;5.684;2023-03-05T12:38:40;9.40;71.10
42755;DHT22;28407;51.830;5.684;2023-03-05T12:40:40;9.50;71.00
42755;DHT22;28407;51.830;5.684;2023-03-05T12:42:43;9.50;70.90
42755;DHT22;28407;51.830;5.684;2023-03-05T12:44:44;9.60;70.90
42755;DHT22;28407;51.830;5.684;2023-03-05T12:49:27;9.70;70.50
42755;DHT22;28407;51.830;5.684;2023-03-05T12:51:34;9.70;70.40
42755;DHT22;28407;51.830;5.684;2023-03-05T12:53:37;9.70;70.40
42755;DHT22;28407;51.830;5.684;2023-03-05T12:57:46;9.80;70.10
42755;DHT22;28407;51.830;5.684;2023-03-05T13:02:25;9.90;69.80
42755;DHT22;28407;51.830;5.684;2023-03-05T13:04:29;9.90;69.70
42755;DHT22;28407;51.830;5.684;2023-03-05T13:06:32;10.00;69.40
42755;DHT22;28407;51.830;5.684;2023-03-05T13:08:34;10.00;69.20
42755;DHT22;28407;51.830;5.684;2023-03-05T13:10:36;10.00;69.10
42755;DHT22;28407;51.830;5.684;2023-03-05T13:12:37;10.10;69.00
42755;DHT22;28407;51.830;5.684;2023-03-05T13:16:41;10.10;68.70
42755;DHT22;28407;51.830;5.684;2023-03-05T13:18:46;10.10;68.60
42755;DHT22;28407;51.830;5.684;2023-03-05T13:20:47;10.10;68.50
42755;DHT22;28407;51.830;5.684;2023-03-05T13:25:15;10.00;68.20
42755;DHT22;28407;51.830;5.684;2023-03-05T13:27:29;10.00;68.30
42755;DHT22;28407;51.830;5.684;2023-03-05T13:29:30;10.00;68.30
42755;DHT22;28407;51.830;5.684;2023-03-05T13:31:31;9.90;68.40
42755;DHT22;28407;51.830;5.684;2023-03-05T13:33:34;9.90;68.40
42755;DHT22;28407;51.830;5.684;2023-03-05T13:35:35;9.90;68.40
42755;DHT22;28407;51.830;5.684;2023-03-05T13:37:43;9.90;68.40
42755;DHT22;28407;51.830;5.684;2023-03-05T13:39:49;9.90;68.40
42755;DHT22;28407;51.830;5.684;2023-03-05T13:44:22;9.80;68.00
42755;DHT22;28407;51.830;5.684;2023-03-05T13:46:24;9.80;68.00
42755;DHT22;28407;51.830;5.684;2023-03-05T13:48:26;9.80;68.00
42755;DHT22;28407;51.830;5.684;2023-03-05T13:50:38;9.80;67.80
42755;DHT22;28407;51.830;5.684;2023-03-05T13:52:39;9.90;67.60
42755;DHT22;28407;51.830;5.684;2023-03-05T13:54:39;9.90;67.70
42755;DHT22;28407;51.830;5.684;2023-03-05T13:56:55;9.90;67.80
42755;DHT22;28407;51.830;5.684;2023-03-05T13:58:57;9.90;67.70
42755;DHT22;28407;51.830;5.684;2023-03-05T14:01:04;9.90;67.60
42755;DHT22;28407;51.830;5.684;2023-03-05T14:03:22;9.80;67.60
42755;DHT22;28407;51.830;5.684;2023-03-05T14:05:24;9.90;67.50
42755;DHT22;28407;51.830;5.684;2023-03-05T14:07:37;9.90;67.50
42755;DHT22;28407;51.830;5.684;2023-03-05T14:11:39;10.00;67.30
42755;DHT22;28407;51.830;5.684;2023-03-05T14:13:40;10.00;67.20